Time;durP1;ratioP1;P1;durP2;ratioP2;P2;SDS_P1;SDS_P2;PMS_P1;PMS_P2;Temp;Humidity;BMP_temperature;BMP_pressure;BME280_temperature;BME280_humidity;BME280_pressure;Samples;Min_cycle;Max_cycle;Signal;HPM_P1;HPM_P2
2023/03/12 00:02:12;;;;;;;7.00;3.20;;;-1.90;99.90;;;;;;5150503;27;20381;-69
2023/03/12 00:04:38;;;;;;;7.47;3.13;;;-2.00;99.90;;;;;;5145620;27;20026;-68
2023/03/12 00:07:05;;;;;;;7.15;2.92;;;-2.00;99.90;;;;;;5145991;27;20026;-69
2023/03/12 00:09:34;;;;;;;8.73;3.90;;;-2.10;99.90;;;;;;5153872;27;20034;-69
2023/03/12 00:11:59;;;;;;;8.45;3.67;;;-2.20;99.90;;;;;;5151159;27;20022;-70
2023/03/12 00:14:25;;;;;;;8.85;3.88;;;-2.20;99.90;;;;;;5148698;27;20033;-69
2023/03/12 00:16:51;;;;;;;11.10;3.75;;;-2.20;99.90;;;;;;5149170;27;20050;-70
2023/03/12 00:19:16;;;;;;;7.78;3.30;;;-2.20;99.90;;;;;;5158433;27;20446;-69
2023/03/12 00:21:42;;;;;;;8.32;3.40;;;-2.20;99.90;;;;;;5143723;27;20026;-70
2023/03/12 00:24:08;;;;;;;8.65;3.20;;;-2.10;99.90;;;;;;5143287;27;20034;-70
2023/03/12 00:26:34;;;;;;;8.73;3.55;;;-2.10;99.90;;;;;;5149048;27;20042;-69
2023/03/12 00:28:59;;;;;;;10.15;3.10;;;-2.10;99.90;;;;;;5135822;27;20380;-69
2023/03/12 00:31:27;;;;;;;7.60;2.95;;;-2.10;99.90;;;;;;5140066;27;20018;-70
2023/03/12 00:33:53;;;;;;;12.45;3.17;;;-2.10;99.90;;;;;;5140416;27;20059;-69
2023/03/12 00:36:23;;;;;;;6.85;2.95;;;-2.00;99.90;;;;;;5147833;27;20035;-69
2023/03/12 00:38:50;;;;;;;9.18;2.58;;;-2.10;99.90;;;;;;5151827;27;20019;-69
2023/03/12 00:41:16;;;;;;;6.55;2.75;;;-2.00;99.90;;;;;;5149277;27;20038;-69
2023/03/12 00:43:41;;;;;;;7.80;2.80;;;-2.10;99.90;;;;;;5140247;27;20200;-70
2023/03/12 00:46:07;;;;;;;6.82;2.67;;;-2.10;99.90;;;;;;5139324;27;20136;-69
2023/03/12 00:48:32;;;;;;;5.97;2.35;;;-2.10;99.90;;;;;;5139186;27;20471;-69
2023/03/12 00:50:58;;;;;;;7.20;2.53;;;-2.20;99.90;;;;;;5141915;27;20083;-69
2023/03/12 00:53:24;;;;;;;9.85;2.67;;;-2.20;99.90;;;;;;5146097;27;20037;-70
2023/03/12 00:55:50;;;;;;;6.20;2.72;;;-2.20;99.90;;;;;;5150197;27;20035;-69
2023/03/12 00:58:15;;;;;;;6.57;3.05;;;-2.20;99.90;;;;;;5143263;27;20068;-69
2023/03/12 01:00:41;;;;;;;7.70;3.05;;;-2.20;99.90;;;;;;5148690;27;20026;-69
2023/03/12 01:03:06;;;;;;;7.97;2.70;;;-2.20;99.90;;;;;;5142431;27;20102;-69
2023/03/12 01:05:36;;;;;;;5.95;2.85;;;-2.20;99.90;;;;;;5143230;27;20039;-69
2023/03/12 01:08:03;;;;;;;5.38;2.55;;;-2.20;99.90;;;;;;5140367;27;20105;-69
2023/03/12 01:10:29;;;;;;;8.55;2.90;;;-2.20;99.90;;;;;;5146802;27;20027;-68
2023/03/12 01:12:55;;;;;;;7.32;2.72;;;-2.20;99.90;;;;;;5147928;27;20163;-69
2023/03/12 01:15:21;;;;;;;12.35;2.97;;;-2.10;99.90;;;;;;5143762;27;20106;-70
2023/03/12 01:17:47;;;;;;;9.55;3.03;;;-2.10;99.90;;;;;;5138377;27;20118;-70
2023/03/12 01:20:13;;;;;;;6.65;3.40;;;-2.10;99.90;;;;;;5146769;27;20354;-70
2023/03/12 01:22:39;;;;;;;10.10;3.70;;;-2.10;99.90;;;;;;5142325;27;20035;-70
2023/03/12 01:25:05;;;;;;;11.85;3.22;;;-2.00;99.90;;;;;;5146864;27;20111;-70
2023/03/12 01:27:31;;;;;;;12.45;3.60;;;-2.00;99.90;;;;;;5142779;27;20035;-70
2023/03/12 01:29:56;;;;;;;10.52;3.80;;;-2.00;99.90;;;;;;5142406;27;20030;-70
2023/03/12 01:32:22;;;;;;;7.93;3.90;;;-1.90;99.90;;;;;;5144884;27;20023;-69
2023/03/12 01:34:48;;;;;;;7.43;3.28;;;-1.90;99.90;;;;;;5144449;27;20031;-69
2023/03/12 01:37:14;;;;;;;9.05;3.50;;;-1.90;99.90;;;;;;5144681;27;20031;-69
2023/03/12 01:39:39;;;;;;;9.70;3.60;;;-1.80;99.90;;;;;;5124779;27;20189;-69
2023/03/12 01:42:05;;;;;;;6.55;3.22;;;-1.70;99.90;;;;;;5146525;27;20023;-69
2023/03/12 01:44:48;;;;;;;7.35;3.30;;;-1.80;99.90;;;;;;5145651;27;20023;-69
2023/03/12 01:47:14;;;;;;;10.02;3.58;;;-1.70;99.90;;;;;;5145748;27;20031;-69
2023/03/12 01:49:40;;;;;;;11.55;3.60;;;-1.60;99.90;;;;;;5146633;27;20137;-69
2023/03/12 01:52:09;;;;;;;8.45;3.63;;;-1.60;99.90;;;;;;5141294;27;20027;-68
2023/03/12 01:54:56;;;;;;;8.25;3.30;;;-1.50;99.90;;;;;;5145299;27;20022;-68
2023/03/12 01:57:35;;;;;;;8.60;3.80;;;-1.40;99.90;;;;;;5148258;27;20053;-68
2023/03/12 02:00:07;;;;;;;7.95;3.03;;;-1.40;99.90;;;;;;5144067;27;20495;-68
2023/03/12 02:02:35;;;;;;;9.25;3.20;;;-1.40;99.90;;;;;;5140767;27;20720;-69
2023/03/12 02:05:10;;;;;;;14.52;3.78;;;-1.30;99.90;;;;;;5138454;27;20027;-69
2023/03/12 02:07:35;;;;;;;10.82;3.53;;;-1.30;99.90;;;;;;5142191;27;20026;-69
2023/03/12 02:10:02;;;;;;;8.52;3.55;;;-1.20;99.90;;;;;;5145316;27;20022;-69
2023/03/12 02:12:27;;;;;;;8.68;3.72;;;-1.20;99.90;;;;;;5144026;27;20035;-69
2023/03/12 02:14:53;;;;;;;7.07;3.42;;;-1.20;99.90;;;;;;5144109;27;20454;-69
2023/03/12 02:17:19;;;;;;;10.52;3.95;;;-1.20;99.90;;;;;;5148850;27;20103;-69
2023/03/12 02:20:06;;;;;;;10.85;4.00;;;-1.20;99.90;;;;;;5141088;27;20059;-69
2023/03/12 02:22:37;;;;;;;9.95;4.22;;;-1.20;99.90;;;;;;5141037;27;20019;-69
2023/03/12 02:25:31;;;;;;;9.95;4.50;;;-1.20;99.90;;;;;;5138889;27;20143;-69
2023/03/12 02:28:03;;;;;;;12.63;4.35;;;-1.20;99.90;;;;;;5143936;27;20110;-69
2023/03/12 02:30:30;;;;;;;10.10;4.22;;;-1.20;99.90;;;;;;5143515;27;20147;-69
2023/03/12 02:32:58;;;;;;;13.52;4.43;;;-1.30;99.90;;;;;;5146586;27;20031;-69
2023/03/12 02:35:24;;;;;;;9.23;4.68;;;-1.30;99.90;;;;;;5146006;27;20057;-69
2023/03/12 02:37:52;;;;;;;9.50;4.78;;;-1.30;99.90;;;;;;5143275;27;20022;-69
2023/03/12 02:40:32;;;;;;;9.23;4.85;;;-1.30;99.90;;;;;;5138875;27;21284;-69
2023/03/12 02:42:59;;;;;;;7.60;4.25;;;-1.40;99.90;;;;;;5142212;27;20102;-69
2023/03/12 02:45:25;;;;;;;11.63;4.72;;;-1.40;99.90;;;;;;5144875;27;20062;-70
2023/03/12 02:47:51;;;;;;;7.57;4.30;;;-1.40;99.90;;;;;;5131952;27;20029;-69
2023/03/12 02:50:17;;;;;;;9.63;4.55;;;-1.40;99.90;;;;;;5153071;27;20026;-69
2023/03/12 02:52:43;;;;;;;12.00;4.38;;;-1.40;99.90;;;;;;5141043;27;20450;-69
2023/03/12 02:55:09;;;;;;;11.80;5.15;;;-1.50;99.90;;;;;;5134459;27;20119;-69
2023/03/12 02:57:37;;;;;;;9.55;4.22;;;-1.50;99.90;;;;;;5136939;27;20458;-69
2023/03/12 03:00:11;;;;;;;11.73;5.00;;;-1.60;99.90;;;;;;5132496;27;20056;-69
2023/03/12 03:02:40;;;;;;;12.70;5.45;;;-1.60;99.90;;;;;;5145457;27;20103;-69
2023/03/12 03:05:08;;;;;;;12.13;5.78;;;-1.60;99.90;;;;;;5143695;27;20101;-69
2023/03/12 03:07:33;;;;;;;12.95;5.07;;;-1.60;99.90;;;;;;5138889;27;20042;-68
2023/03/12 03:10:02;;;;;;;10.93;4.80;;;-1.70;99.90;;;;;;5143979;27;20393;-68
2023/03/12 03:12:29;;;;;;;10.45;5.40;;;-1.70;99.90;;;;;;5134982;27;20397;-69
2023/03/12 03:14:55;;;;;;;9.13;4.93;;;-1.80;99.90;;;;;;5121059;27;20035;-69
2023/03/12 03:17:23;;;;;;;11.48;5.65;;;-1.70;99.90;;;;;;5137630;27;20100;-69
2023/03/12 03:19:49;;;;;;;13.43;5.53;;;-1.70;99.90;;;;;;5142186;27;20023;-69
2023/03/12 03:22:15;;;;;;;14.27;5.13;;;-1.70;99.90;;;;;;5142599;27;20083;-69
2023/03/12 03:24:41;;;;;;;12.63;5.30;;;-1.70;99.90;;;;;;5133929;27;20633;-69
2023/03/12 03:27:06;;;;;;;12.68;4.95;;;-1.60;99.90;;;;;;5143808;27;20487;-70
2023/03/12 03:29:32;;;;;;;14.38;4.93;;;-1.50;99.90;;;;;;5141181;27;20027;-70
2023/03/12 03:31:57;;;;;;;15.30;5.40;;;-1.40;99.90;;;;;;5140808;27;20022;-70
2023/03/12 03:34:23;;;;;;;13.77;5.05;;;-1.40;99.90;;;;;;5139954;27;20516;-70
2023/03/12 03:36:49;;;;;;;14.30;5.97;;;-1.30;99.90;;;;;;5143947;27;20037;-69
2023/03/12 03:39:14;;;;;;;12.52;5.32;;;-1.20;99.90;;;;;;5144776;27;20438;-69
2023/03/12 03:41:40;;;;;;;13.07;5.80;;;-1.20;99.90;;;;;;5136663;27;20063;-69
2023/03/12 03:44:06;;;;;;;11.88;5.20;;;-1.20;99.90;;;;;;5138295;27;20469;-70
2023/03/12 03:46:34;;;;;;;13.55;5.72;;;-1.10;99.90;;;;;;5137700;27;20579;-69
2023/03/12 03:49:00;;;;;;;10.23;5.43;;;-1.10;99.90;;;;;;5144943;27;20035;-71
2023/03/12 03:51:26;;;;;;;14.57;5.80;;;-1.00;99.90;;;;;;5137467;27;20016;-69
2023/03/12 03:53:52;;;;;;;14.90;6.18;;;-0.90;99.90;;;;;;5136082;27;20041;-70
2023/03/12 03:56:17;;;;;;;14.55;5.88;;;-0.90;99.90;;;;;;5144603;27;20026;-70
2023/03/12 03:58:43;;;;;;;16.13;6.57;;;-0.80;99.90;;;;;;5150249;27;20022;-68
2023/03/12 04:01:11;;;;;;;13.43;5.80;;;-0.80;99.90;;;;;;5143776;27;20027;-68
2023/03/12 04:03:36;;;;;;;13.88;5.65;;;-0.70;99.90;;;;;;5145533;27;20026;-68
2023/03/12 04:06:04;;;;;;;15.80;6.40;;;-0.60;99.90;;;;;;5143592;27;20038;-68
2023/03/12 04:08:31;;;;;;;13.00;6.20;;;-0.60;99.90;;;;;;5145111;27;20030;-69
2023/03/12 04:10:57;;;;;;;15.15;6.55;;;-0.50;99.90;;;;;;5145529;27;20041;-68
2023/03/12 04:13:23;;;;;;;13.25;6.00;;;-0.50;99.90;;;;;;5143327;27;20031;-68
2023/03/12 04:15:51;;;;;;;17.08;6.32;;;-0.50;99.90;;;;;;5152648;27;20477;-69
2023/03/12 04:18:17;;;;;;;12.60;6.32;;;-0.40;99.90;;;;;;5149520;27;20417;-69
2023/03/12 04:20:43;;;;;;;12.63;5.95;;;-0.30;99.90;;;;;;5151030;27;20019;-69
2023/03/12 04:23:09;;;;;;;16.95;6.50;;;-0.30;99.90;;;;;;5154575;27;20376;-70
2023/03/12 04:25:35;;;;;;;11.77;6.03;;;-0.30;99.90;;;;;;5144028;27;20036;-70
2023/03/12 04:28:01;;;;;;;12.70;5.72;;;-0.30;99.90;;;;;;5145458;27;20053;-68
2023/03/12 04:30:27;;;;;;;12.40;6.20;;;-0.30;99.90;;;;;;5153832;27;20023;-69
2023/03/12 04:32:53;;;;;;;10.20;5.97;;;-0.30;99.90;;;;;;5154233;27;20023;-68
2023/03/12 04:35:19;;;;;;;11.60;6.43;;;-0.30;99.90;;;;;;5152485;27;20027;-69
2023/03/12 04:37:45;;;;;;;15.98;6.80;;;-0.30;99.90;;;;;;5153851;27;20427;-68
2023/03/12 04:40:12;;;;;;;11.90;5.78;;;-0.30;99.90;;;;;;5152781;27;20033;-69
2023/03/12 04:42:38;;;;;;;14.95;6.75;;;-0.20;99.90;;;;;;5148827;27;20496;-69
2023/03/12 04:45:05;;;;;;;13.65;6.22;;;-0.10;99.90;;;;;;5145319;27;21175;-70
2023/03/12 04:47:32;;;;;;;13.23;6.72;;;-0.10;99.90;;;;;;5127365;27;20081;-69
2023/03/12 04:49:58;;;;;;;13.52;7.13;;;-0.10;99.90;;;;;;5133221;27;20377;-70
2023/03/12 04:52:24;;;;;;;11.40;6.03;;;-0.10;99.90;;;;;;5131223;27;20027;-68
2023/03/12 04:54:49;;;;;;;17.33;6.50;;;-0.10;99.90;;;;;;5131343;27;20411;-69
2023/03/12 04:57:15;;;;;;;19.45;7.22;;;0.00;99.90;;;;;;5131818;27;20035;-69
2023/03/12 04:59:41;;;;;;;15.75;6.38;;;0.00;99.90;;;;;;5104379;27;20457;-69
2023/03/12 05:02:07;;;;;;;10.38;6.22;;;0.00;99.90;;;;;;5122453;27;20024;-70
2023/03/12 05:04:32;;;;;;;11.93;5.82;;;0.10;99.90;;;;;;5126402;27;20453;-69
2023/03/12 05:06:58;;;;;;;14.57;6.15;;;0.10;99.90;;;;;;5128806;27;20035;-69
2023/03/12 05:09:24;;;;;;;12.18;5.90;;;0.10;99.90;;;;;;5118075;27;20111;-70
2023/03/12 05:11:49;;;;;;;13.20;6.35;;;0.10;99.90;;;;;;5118021;27;20027;-69
2023/03/12 05:14:15;;;;;;;10.95;6.70;;;0.10;99.90;;;;;;5123472;27;20035;-70
2023/03/12 05:16:41;;;;;;;15.98;6.50;;;0.20;99.90;;;;;;5123999;27;20019;-70
2023/03/12 05:19:06;;;;;;;11.02;6.05;;;0.20;99.90;;;;;;5132385;27;20030;-68
2023/03/12 05:21:32;;;;;;;15.60;6.40;;;0.30;99.90;;;;;;5116561;27;20035;-70
2023/03/12 05:23:58;;;;;;;15.98;6.15;;;0.30;99.90;;;;;;5118597;27;20026;-70
2023/03/12 05:26:26;;;;;;;14.07;5.88;;;0.40;99.90;;;;;;5117602;27;20047;-69
2023/03/12 05:28:53;;;;;;;14.50;6.30;;;0.40;99.90;;;;;;5117947;27;20027;-69
2023/03/12 05:31:19;;;;;;;12.48;5.70;;;0.50;99.90;;;;;;5132824;27;20076;-69
2023/03/12 05:33:45;;;;;;;15.95;6.68;;;0.50;99.90;;;;;;5122504;27;20079;-70
2023/03/12 05:36:12;;;;;;;13.00;6.03;;;0.50;99.90;;;;;;5118112;27;20027;-70
2023/03/12 05:38:38;;;;;;;13.23;5.57;;;0.50;99.90;;;;;;5125293;27;20024;-69
2023/03/12 05:41:04;;;;;;;14.57;5.78;;;0.50;99.90;;;;;;5132239;27;20027;-69
2023/03/12 05:43:30;;;;;;;11.25;6.03;;;0.50;99.90;;;;;;5127617;27;20537;-69
2023/03/12 05:46:02;;;;;;;11.30;5.90;;;0.40;99.90;;;;;;5126644;27;20081;-68
2023/03/12 05:48:27;;;;;;;13.68;6.07;;;0.50;99.90;;;;;;5141377;27;20031;-69
2023/03/12 05:50:53;;;;;;;11.27;6.00;;;0.50;99.90;;;;;;5147557;27;20063;-69
2023/03/12 05:53:19;;;;;;;14.82;5.30;;;0.50;99.90;;;;;;5151985;27;20072;-69
2023/03/12 05:55:44;;;;;;;9.82;5.47;;;0.50;99.90;;;;;;5151929;27;20083;-69
2023/03/12 05:58:10;;;;;;;10.88;6.43;;;0.50;99.90;;;;;;5147101;27;20499;-69
2023/03/12 06:00:36;;;;;;;9.90;5.40;;;0.40;99.90;;;;;;5151835;27;20030;-69
2023/03/12 06:03:04;;;;;;;12.55;5.70;;;0.50;99.90;;;;;;5146610;27;20035;-69
2023/03/12 06:05:31;;;;;;;13.85;6.82;;;0.40;99.90;;;;;;5150974;27;20108;-68
2023/03/12 06:07:57;;;;;;;15.55;6.22;;;0.50;99.90;;;;;;5153436;27;20030;-68
2023/03/12 06:10:23;;;;;;;15.30;6.35;;;0.50;99.90;;;;;;5152451;27;20081;-70
2023/03/12 06:12:48;;;;;;;12.95;6.28;;;0.50;99.90;;;;;;5150847;27;20035;-70
2023/03/12 06:15:14;;;;;;;14.05;6.32;;;0.50;99.90;;;;;;5151898;27;20038;-69
2023/03/12 06:17:40;;;;;;;12.13;6.20;;;0.50;99.90;;;;;;5147226;27;20027;-71
2023/03/12 06:20:12;;;;;;;11.73;6.45;;;0.40;99.90;;;;;;5152012;27;20178;-70
2023/03/12 06:22:38;;;;;;;10.70;6.53;;;0.40;99.90;;;;;;5152395;27;20097;-69
2023/03/12 06:25:04;;;;;;;15.43;6.15;;;0.40;99.90;;;;;;5148597;27;20154;-69
2023/03/12 06:27:30;;;;;;;16.23;7.03;;;0.40;99.90;;;;;;5146152;27;20441;-69
2023/03/12 06:29:56;;;;;;;19.48;7.55;;;0.50;99.90;;;;;;5136573;27;20087;-68
2023/03/12 06:32:22;;;;;;;14.73;6.97;;;0.50;99.90;;;;;;5146938;27;20072;-69
2023/03/12 06:34:47;;;;;;;13.27;6.65;;;0.60;99.90;;;;;;5122803;27;20113;-68
2023/03/12 06:37:13;;;;;;;13.73;7.18;;;0.60;99.90;;;;;;5142393;27;20430;-68
2023/03/12 06:39:39;;;;;;;12.80;7.03;;;0.50;99.90;;;;;;5154951;27;20030;-69
2023/03/12 06:42:05;;;;;;;13.02;7.10;;;0.40;99.90;;;;;;5131889;27;20389;-68
2023/03/12 06:44:31;;;;;;;14.50;6.45;;;0.30;99.90;;;;;;5145351;27;20023;-70
2023/03/12 06:46:57;;;;;;;12.05;6.90;;;0.30;99.90;;;;;;5144839;27;20049;-72
2023/03/12 06:49:22;;;;;;;13.02;7.38;;;0.30;99.90;;;;;;5146162;27;20043;-72
2023/03/12 06:51:48;;;;;;;17.67;7.57;;;0.30;99.90;;;;;;5143580;27;20019;-73
2023/03/12 06:54:14;;;;;;;14.80;8.15;;;0.30;99.90;;;;;;5150582;27;20066;-73
2023/03/12 06:56:40;;;;;;;11.57;7.20;;;0.50;99.90;;;;;;5145642;27;20031;-73
2023/03/12 06:59:06;;;;;;;13.63;7.05;;;0.60;99.90;;;;;;5146704;27;20046;-73
2023/03/12 07:01:32;;;;;;;15.25;7.53;;;0.70;99.90;;;;;;5130474;27;20030;-73
2023/03/12 07:03:57;;;;;;;12.20;7.20;;;0.90;99.90;;;;;;5155387;27;20034;-69
2023/03/12 07:06:23;;;;;;;16.02;7.72;;;0.90;99.90;;;;;;5150487;27;20417;-69
2023/03/12 07:08:49;;;;;;;20.85;7.53;;;0.90;99.90;;;;;;5147911;27;20031;-68
2023/03/12 07:11:16;;;;;;;13.15;8.00;;;1.10;99.90;;;;;;5145922;27;20027;-68
2023/03/12 07:13:42;;;;;;;15.73;8.60;;;1.20;99.90;;;;;;5145823;27;20026;-69
2023/03/12 07:16:08;;;;;;;14.23;7.78;;;1.30;99.90;;;;;;5143071;27;20045;-68
2023/03/12 07:18:33;;;;;;;14.35;7.35;;;1.40;99.90;;;;;;5151148;27;20075;-68
2023/03/12 07:20:59;;;;;;;12.10;7.95;;;1.40;99.90;;;;;;5150837;27;20423;-68
2023/03/12 07:23:25;;;;;;;10.82;6.53;;;1.40;99.90;;;;;;5150767;27;20030;-68
2023/03/12 07:25:51;;;;;;;12.02;7.00;;;1.30;99.90;;;;;;5151412;27;20070;-69
2023/03/12 07:28:17;;;;;;;16.73;6.70;;;1.30;99.90;;;;;;5147987;27;20462;-68
2023/03/12 07:30:49;;;;;;;11.05;7.05;;;1.30;99.90;;;;;;5150152;27;20023;-69
2023/03/12 07:33:15;;;;;;;12.25;6.75;;;1.30;99.90;;;;;;5151534;27;20042;-69
2023/03/12 07:35:41;;;;;;;15.60;6.65;;;1.30;99.90;;;;;;5150190;27;20034;-68
2023/03/12 07:38:07;;;;;;;11.00;5.85;;;1.30;99.90;;;;;;5151244;27;20027;-68
2023/03/12 07:40:34;;;;;;;10.23;5.95;;;1.40;99.90;;;;;;5149873;27;20026;-69
2023/03/12 07:43:00;;;;;;;12.32;5.90;;;1.50;99.90;;;;;;5151759;27;20034;-70
2023/03/12 07:45:26;;;;;;;11.32;5.50;;;1.50;99.90;;;;;;5149887;27;20046;-68
2023/03/12 07:47:51;;;;;;;10.73;6.13;;;1.60;99.90;;;;;;5147198;27;20039;-69
2023/03/12 07:50:18;;;;;;;10.13;5.43;;;1.70;99.90;;;;;;5149487;27;20044;-70
2023/03/12 07:52:44;;;;;;;8.10;5.63;;;1.90;99.90;;;;;;5149812;27;20026;-70
2023/03/12 07:55:10;;;;;;;13.82;5.80;;;2.10;99.90;;;;;;5153285;27;20054;-70
2023/03/12 07:57:36;;;;;;;11.00;5.35;;;2.30;99.90;;;;;;5148374;27;20023;-72
2023/03/12 08:00:06;;;;;;;10.23;5.85;;;2.40;99.90;;;;;;5150846;27;20023;-70
2023/03/12 08:02:32;;;;;;;12.38;5.75;;;2.60;99.90;;;;;;5150437;27;20038;-69
2023/03/12 08:04:58;;;;;;;9.02;5.05;;;2.80;99.90;;;;;;5150815;27;20030;-69
2023/03/12 08:07:24;;;;;;;8.27;5.07;;;3.00;99.90;;;;;;5152248;27;20027;-69
2023/03/12 08:09:49;;;;;;;13.73;5.53;;;3.30;99.90;;;;;;5154761;27;20034;-69
2023/03/12 08:12:15;;;;;;;9.57;4.65;;;3.40;99.90;;;;;;5155299;27;20071;-69
2023/03/12 08:14:41;;;;;;;12.50;5.22;;;3.40;99.90;;;;;;5153814;27;20126;-69
2023/03/12 08:17:06;;;;;;;10.50;5.70;;;3.30;99.90;;;;;;5154690;27;20026;-69
2023/03/12 08:19:32;;;;;;;8.10;5.40;;;3.40;99.90;;;;;;5151190;27;20023;-69
2023/03/12 08:22:01;;;;;;;11.13;5.60;;;3.30;99.90;;;;;;5153687;27;20035;-69
2023/03/12 08:24:27;;;;;;;8.25;5.07;;;3.30;99.90;;;;;;5145990;27;20087;-74
2023/03/12 08:26:52;;;;;;;13.90;5.40;;;3.30;99.90;;;;;;5149769;27;20038;-70
2023/03/12 08:29:19;;;;;;;10.00;6.00;;;3.30;99.90;;;;;;5142921;27;20525;-67
2023/03/12 08:31:44;;;;;;;8.98;5.20;;;3.30;99.90;;;;;;5143046;27;20015;-69
2023/03/12 08:34:10;;;;;;;9.00;4.85;;;3.40;99.90;;;;;;5136788;27;20027;-69
2023/03/12 08:36:36;;;;;;;11.32;6.00;;;3.40;99.90;;;;;;5138459;27;20033;-68
2023/03/12 08:39:02;;;;;;;10.32;5.13;;;3.40;99.90;;;;;;5135283;27;20054;-69
2023/03/12 08:41:29;;;;;;;11.52;6.03;;;3.50;99.90;;;;;;5145122;27;20083;-78
2023/03/12 08:43:54;;;;;;;9.35;5.32;;;3.50;99.90;;;;;;5150980;27;20019;-83
2023/03/12 08:46:20;;;;;;;9.30;6.03;;;3.60;99.90;;;;;;5135713;27;20043;-79
2023/03/12 08:48:46;;;;;;;8.63;5.30;;;3.60;99.90;;;;;;5140537;27;20151;-80
2023/03/12 08:51:11;;;;;;;9.82;5.88;;;3.70;99.90;;;;;;5146009;27;20376;-71
2023/03/12 08:53:37;;;;;;;9.07;5.63;;;3.90;99.90;;;;;;5146494;27;20019;-72
2023/03/12 08:56:03;;;;;;;9.23;5.70;;;4.00;99.90;;;;;;5152324;27;20456;-75
2023/03/12 08:58:29;;;;;;;11.48;6.13;;;4.10;99.90;;;;;;5152638;27;20127;-75
2023/03/12 09:00:55;;;;;;;11.10;5.88;;;4.20;99.90;;;;;;5152582;27;20052;-71
2023/03/12 09:03:22;;;;;;;9.93;6.05;;;4.30;99.90;;;;;;5151209;27;20026;-68
2023/03/12 09:05:51;;;;;;;9.15;6.38;;;;;;;;;;5150160;27;20058;-74
2023/03/12 09:08:17;;;;;;;10.48;5.88;;;;;;;;;;5147708;27;20050;-84
2023/03/12 09:10:49;;;;;;;9.32;5.85;;;;;;;;;;5151538;27;20022;-69
2023/03/12 09:13:15;;;;;;;10.82;6.13;;;;;;;;;;5150391;27;20540;-70
2023/03/12 09:15:41;;;;;;;8.80;6.20;;;;;;;;;;5145159;27;20083;-70
2023/03/12 09:18:07;;;;;;;11.48;6.63;;;;;;;;;;5149950;27;20030;-71
2023/03/12 09:20:33;;;;;;;12.82;6.18;;;;;;;;;;5149591;27;20034;-70
2023/03/12 09:22:59;;;;;;;11.75;6.32;;;;;;;;;;5146548;27;20044;-70
2023/03/12 09:25:25;;;;;;;10.82;6.55;;;5.30;99.90;;;;;;5142256;27;20399;-67
2023/03/12 09:27:50;;;;;;;13.70;7.28;;;5.40;99.90;;;;;;5155025;27;20030;-68
2023/03/12 09:30:18;;;;;;;12.88;7.43;;;5.50;99.90;;;;;;5145317;27;20023;-70
2023/03/12 09:32:44;;;;;;;9.52;6.90;;;5.60;99.90;;;;;;5144883;27;20123;-70
2023/03/12 09:35:11;;;;;;;10.85;6.65;;;5.70;99.90;;;;;;5147455;27;20182;-69
2023/03/12 09:37:36;;;;;;;11.45;6.85;;;5.80;99.90;;;;;;5146203;27;20058;-68
2023/03/12 09:40:09;;;;;;;8.82;6.38;;;5.90;99.90;;;;;;5142848;27;20066;-69
2023/03/12 09:42:42;;;;;;;9.80;6.20;;;6.00;99.90;;;;;;5148041;27;20401;-71
2023/03/12 09:45:17;;;;;;;9.90;6.32;;;6.10;99.90;;;;;;5148327;27;20038;-69
2023/03/12 09:47:49;;;;;;;10.68;6.05;;;6.30;99.90;;;;;;5147959;27;20029;-70
2023/03/12 09:50:33;;;;;;;8.05;5.82;;;6.40;99.90;;;;;;5152623;27;20023;-72
2023/03/12 09:53:11;;;;;;;15.85;6.65;;;6.60;99.90;;;;;;5152507;27;20027;-70
2023/03/12 09:55:39;;;;;;;12.50;8.52;;;6.70;99.90;;;;;;5145846;27;20018;-70
2023/03/12 09:58:12;;;;;;;11.98;7.72;;;;;;;;;;5150079;27;20031;-70
2023/03/12 10:00:38;;;;;;;12.70;7.78;;;;;;;;;;5143740;27;20027;-69
2023/03/12 10:03:04;;;;;;;14.63;8.02;;;;;;;;;;5149066;27;20019;-70
2023/03/12 10:05:30;;;;;;;13.68;8.48;;;;;;;;;;5145113;27;20358;-69
2023/03/12 10:07:58;;;;;;;14.43;8.80;;;;;;;;;;5153228;27;20029;-72
2023/03/12 10:10:27;;;;;;;11.15;7.97;;;;;;;;;;5151945;27;20469;-73
2023/03/12 10:13:11;;;;;;;14.70;8.63;;;;;;;;;;5152055;27;20019;-73
2023/03/12 10:15:52;;;;;;;12.75;8.25;;;;;;;;;;5149001;27;20051;-72
2023/03/12 10:18:22;;;;;;;13.38;7.63;;;;;;;;;;5145534;27;20037;-73
2023/03/12 10:20:54;;;;;;;14.65;8.32;;;;;;;;;;5150682;27;20093;-73
2023/03/12 10:23:38;;;;;;;11.32;7.68;;;;;;;;;;5145441;27;20027;-72
2023/03/12 10:26:30;;;;;;;13.73;7.30;;;;;;;;;;5150464;27;20034;-71
2023/03/12 10:28:58;;;;;;;15.43;8.35;;;;;;;;;;5138185;27;20047;-72
2023/03/12 10:31:26;;;;;;;10.50;7.13;;;8.50;99.90;;;;;;5145586;27;20121;-69
2023/03/12 10:34:00;;;;;;;11.98;7.30;;;8.50;99.90;;;;;;5147750;27;20553;-71
2023/03/12 10:36:39;;;;;;;11.38;7.32;;;8.50;99.90;;;;;;5148424;27;20038;-72
2023/03/12 10:39:18;;;;;;;10.35;7.20;;;8.60;99.90;;;;;;5151750;27;20019;-73
2023/03/12 10:41:45;;;;;;;10.13;7.17;;;8.60;99.90;;;;;;5137098;27;20099;-73
2023/03/12 10:44:20;;;;;;;5.15;3.92;;;8.80;99.90;;;;;;5147819;27;20022;-72
2023/03/12 10:47:17;;;;;;;3.95;1.95;;;9.00;99.90;;;;;;5123593;27;20409;-72
2023/03/12 10:49:49;;;;;;;3.80;1.98;;;;;;;;;;5144052;27;20110;-73
2023/03/12 10:52:20;;;;;;;4.97;1.85;;;9.10;99.90;;;;;;5144849;27;20428;-72
2023/03/12 10:54:51;;;;;;;4.63;1.88;;;9.20;99.90;;;;;;5145904;27;20032;-71
2023/03/12 10:57:18;;;;;;;2.78;1.48;;;9.30;99.90;;;;;;5145332;27;20030;-72
2023/03/12 10:59:46;;;;;;;2.38;1.85;;;9.40;99.90;;;;;;5142471;27;20097;-70
2023/03/12 11:02:29;;;;;;;6.70;2.00;;;9.30;99.90;;;;;;5143156;27;20027;-70
2023/03/12 11:04:55;;;;;;;2.40;1.73;;;9.30;99.90;;;;;;5127520;27;21114;-69
2023/03/12 11:07:33;;;;;;;3.97;1.90;;;9.40;99.90;;;;;;5143606;27;20062;-71
2023/03/12 11:10:14;;;;;;;8.00;1.92;;;9.50;99.90;;;;;;5141389;27;20105;-69
2023/03/12 11:12:40;;;;;;;1.83;1.60;;;;;;;;;;5149808;27;20038;-70
2023/03/12 11:15:23;;;;;;;5.70;2.15;;;;;;;;;;5140765;27;20035;-68
2023/03/12 11:17:49;;;;;;;2.25;1.65;;;10.00;99.90;;;;;;5142473;27;20035;-69
2023/03/12 11:20:21;;;;;;;5.07;1.30;;;10.10;99.90;;;;;;5146752;27;20737;-68
2023/03/12 11:22:46;;;;;;;3.30;1.70;;;10.20;99.90;;;;;;5147199;27;20098;-71
2023/03/12 11:25:27;;;;;;;3.67;2.10;;;10.40;99.90;;;;;;5146735;27;20167;-68
2023/03/12 11:27:59;;;;;;;3.70;2.22;;;10.70;99.90;;;;;;5149194;27;20465;-68
2023/03/12 11:30:43;;;;;;;4.15;2.20;;;10.90;99.90;;;;;;5148494;27;20041;-69
2023/03/12 11:33:11;;;;;;;3.67;1.50;;;11.20;99.90;;;;;;5151545;27;20387;-68
2023/03/12 11:36:03;;;;;;;1.90;1.48;;;11.30;99.90;;;;;;5148286;27;20026;-68
2023/03/12 11:38:40;;;;;;;2.33;1.48;;;11.50;99.90;;;;;;5153758;27;20035;-68
2023/03/12 11:41:27;;;;;;;1.77;1.13;;;11.70;99.90;;;;;;5151552;27;20019;-68
2023/03/12 11:44:24;;;;;;;2.58;0.98;;;11.90;99.90;;;;;;5154547;27;20161;-70
2023/03/12 11:47:31;;;;;;;2.33;1.08;;;12.10;99.90;;;;;;5143335;27;20050;-69
2023/03/12 11:50:26;;;;;;;2.75;0.82;;;12.10;99.90;;;;;;5068757;27;20091;-69
2023/03/12 11:53:10;;;;;;;3.38;1.10;;;12.20;99.90;;;;;;5153275;27;20083;-70
2023/03/12 11:55:48;;;;;;;2.40;1.05;;;12.30;99.90;;;;;;5141497;27;20023;-71
2023/03/12 11:58:32;;;;;;;2.38;0.70;;;12.20;99.90;;;;;;5149255;27;20380;-70
2023/03/12 12:01:09;;;;;;;1.67;0.90;;;12.30;99.90;;;;;;5147874;27;20109;-68
2023/03/12 12:04:05;;;;;;;2.78;1.02;;;12.30;99.90;;;;;;5147111;27;20023;-70
2023/03/12 12:06:39;;;;;;;3.70;0.85;;;12.50;99.90;;;;;;5139241;27;20049;-69
2023/03/12 12:09:08;;;;;;;2.05;0.70;;;12.50;99.90;;;;;;5153704;27;20110;-69
2023/03/12 12:11:44;;;;;;;1.40;0.73;;;12.60;99.90;;;;;;5149484;27;20027;-69
2023/03/12 12:14:12;;;;;;;1.88;1.15;;;12.80;99.90;;;;;;5151274;27;20842;-76
2023/03/12 12:16:56;;;;;;;2.35;1.20;;;12.70;99.90;;;;;;5148776;27;20038;-73
2023/03/12 12:19:38;;;;;;;1.20;0.80;;;12.90;99.90;;;;;;5149763;27;20042;-70
2023/03/12 12:22:41;;;;;;;4.10;0.65;;;13.00;99.90;;;;;;5150968;27;20483;-73
2023/03/12 12:25:49;;;;;;;3.83;0.80;;;13.10;99.90;;;;;;5145028;27;20023;-73
2023/03/12 12:28:41;;;;;;;3.70;0.90;;;13.10;99.90;;;;;;5149590;27;20114;-73
2023/03/12 12:31:35;;;;;;;2.72;1.10;;;13.00;99.90;;;;;;5147707;27;20029;-73
2023/03/12 12:34:20;;;;;;;2.00;0.85;;;13.10;99.90;;;;;;5153991;27;20058;-72
2023/03/12 12:36:51;;;;;;;2.58;1.00;;;13.20;99.90;;;;;;5144676;27;20117;-71
2023/03/12 12:39:31;;;;;;;3.03;1.63;;;13.40;99.90;;;;;;5145404;27;20380;-72
2023/03/12 12:42:04;;;;;;;5.70;1.00;;;13.40;99.90;;;;;;5150116;27;20533;-73
2023/03/12 12:44:35;;;;;;;2.88;0.93;;;13.40;99.90;;;;;;5128319;27;20094;-69
2023/03/12 12:47:05;;;;;;;4.18;0.93;;;13.40;99.90;;;;;;5149432;27;20038;-72
2023/03/12 12:49:42;;;;;;;5.05;1.05;;;13.40;99.90;;;;;;5149149;27;20026;-72
2023/03/12 12:52:12;;;;;;;4.50;1.05;;;13.30;99.90;;;;;;5152116;27;20037;-71
2023/03/12 12:54:55;;;;;;;4.20;1.20;;;13.30;99.90;;;;;;5142261;27;20483;-70
2023/03/12 12:57:37;;;;;;;5.22;1.20;;;13.40;99.90;;;;;;5147832;27;20027;-71
2023/03/12 13:00:38;;;;;;;4.82;1.35;;;13.50;99.90;;;;;;5145600;27;20022;-75
2023/03/12 13:03:04;;;;;;;4.85;1.08;;;13.30;99.90;;;;;;5062825;28;20132;-71
2023/03/12 13:05:35;;;;;;;4.20;1.13;;;13.10;99.90;;;;;;5127396;27;20042;-71